CheckWX is a tool to help pilots better visualize weather data.  It is not intended as a substitute for an official pre-flight weather briefing.

03:52:32 UTC

KPRC METAR
Ernest A Love Field Airport
Prescott, Arizona, USA
Current

60 mins ago

KPRC 070253Z 19005KT 10SM CLR 11/M04 A3003 RMK AO2 SLP127 T01111039 51013
Observed
Apr-7 @ 02:53 UTC
Wind
  • 190° at 5 KTS
Visibility
Flight Rules
VFR
Cloud Levels
  • Clear skies
Temperature
11°C / 52°F
Dewpoint
-4°C / 25°F
Humidity
35%
Altimeter
30.03" Hg
Pressure
1016.92 hPa
Previous

2 hours ago

KPRC 070153Z 20010KT 10SM CLR 12/M04 A3001 RMK AO2 SLP125 T01221044
Observed
Apr-7 @ 01:53 UTC
Wind
  • 200° at 10 KTS
Visibility
Flight Rules
VFR
Cloud Levels
  • Clear skies
Temperature
12°C / 54°F
Dewpoint
-4°C / 25°F
Humidity
33%
Altimeter
30.01" Hg
Pressure
1016.22 hPa
Previous

3 hours ago

KPRC 070053Z 20013G20KT 10SM CLR 14/M07 A3000 RMK AO2 SLP122 T01391067
Observed
Apr-7 @ 00:53 UTC
Wind
  • 200° at 13 KTS
  • Gusting to 20 KTS
Visibility
Flight Rules
VFR
Cloud Levels
  • Clear skies
Temperature
14°C / 57°F
Dewpoint
-7°C / 19°F
Humidity
23%
Altimeter
30" Hg
Pressure
1015.92 hPa